Andale, KS (67001)

9:41 AM CDT on May 22, 2015 (GMT -0500)
hamill shop | | Change Station
CLOSE
Current Station
Personal Weather Station
Location: Mount Hope, KS
Elevation: 1470 ft
Nearby Weather Stations

Elev 1470 ft 37.85 °N, 97.68 °W | Updated 3 minutes ago

Rain
Rain
51.7 °F
Feels Like 51.7 °F
N
10.0
Wind Variable Wind from ESE
Gusts 11.0 mph

Today
High -- | Low -- °F
--% Chance of Precip.
Yesterday
High -- | Low -- °F
Precip. -- in
6:15 AM 8:39 PM
Waxing Crescent, 21% visible
Pressure 30.22 in
Visibility 3.0 miles
Clouds Mostly Cloudy 7500 ft
Overcast 9000 ft
Dew Point 50 °F
Humidity 93%
Rainfall 0.15 in
Snow Depth Not available.
UV 1 out of 12
Pollen 5.70 out of 12
Air Quality Not available.
Flu Activity No Activity
METAR KICT 221353Z 11008KT 3SM RA BR BKN075 OVC090 11/09 A3022 RMK AO2 PRESFR SLP232 P0012 T01110089

More Conditions Fewer Conditions

Pressure 30.22 in
Visibility 3.0 miles
Clouds Mostly Cloudy 7500 ft
Overcast 9000 ft
Dew Point 50 °F
Humidity 93%
Rainfall 0.15 in
Snow Depth Not available.
UV 1 out of 12
Pollen 5.70 out of 12
Air Quality Not available.
Flu Activity No Activity
METAR KICT 221353Z 11008KT 3SM RA BR BKN075 OVC090 11/09 A3022 RMK AO2 PRESFR SLP232 P0012 T01110089

More Conditions Fewer Conditions

10-Day Weather Forecast

Almanac

Astronomy

May. 22, 2015 Rise Set
Actual Time
Civil Twilight
Nautical Twilight
Astronomical Twilight
Moon
Length of Visible Light
Length of Day
Tomorrow will be .
, % of the Moon is Illuminated

Today's Extremes

State Highs State Lows

Community

WunderPhotos

Upload Photos

1,823,233 photos uploaded!

WunderBlogs® & News

Nearby

Air Quality

  Air Quality AQ Index Pollutant
Not available.

Snow Depth

Station Depth Elevation

Earthquake Activity

City Distance Mag. Time & Date
Minimum magnitude displayed is 2.5.

Coastal Water Temperatures

Place Temperature

Stations

Nearby Weather Stations

Station Location Temp. Windchill Dew Point Humidity Wind Precip. Elev Updated Type